Nearby METAR Reports

 

KVCT - Victoria, Texas, USA
Distance from station: E 12mi, 20km
Updated: 06/19/2019 5:51am
Mist, Few clouds
Mist, Few clouds
 Wind from S
Wind: S 7 mph , 11 km/h
Temperature: 79°F , 26°C
Dew Point: 75°F , 24°C
Humidity: 89%
Barometer: 29.85 inHg , 1010.8 hPa
Summary: Mist
Clouds: Few Clouds
Visibility: 4 miles , 6 km
Cloud details: Few Clouds 1900 ft
2019/06/19 10:51 KVCT 191051Z AUTO 18006KT 4SM BR FEW019 26/24 A2985 RMK AO2 SLP106 T02560244 $
KPKV - Port Lavaca, Texas, USA
Distance from station: ESE 31mi, 50km
Updated: 06/19/2019 6:35am
Mist, Partly cloudy
Mist, Partly cloudy
 Wind from S
Wind: S 5 mph , 7 km/h
Temperature: 79°F , 26°C
Dew Point: 77°F , 25°C
Humidity: 94%
Barometer: 29.85 inHg , 1010.8 hPa
Summary: Mist
Clouds: Partly cloudy
Visibility: 4 miles , 6 km
Cloud details: Partly cloudy 1600 ft
Partly cloudy 2500 ft
2019/06/19 11:35 KPKV 191135Z AUTO 19004KT 4SM BR SCT016 SCT025 26/25 A2985 RMK AO2 T02610252
 
KT20 - Gonzales Muni, Texas, USA
Distance from station: NNW 50mi, 81km
Updated: 06/19/2019 6:35am
Mist, Overcast
Mist, Overcast
 Wind from SSW
Wind: SSW 5 mph , 7 km/h
Temperature: 79°F , 26°C
Dew Point: 77°F , 25°C
Humidity: 94%
Barometer: 29.85 inHg , 1010.8 hPa
Summary: Mist
Clouds: Overcast
Visibility: 5 miles , 8 km
Cloud details: Overcast 1000 ft
2019/06/19 11:35 KT20 191135Z AUTO 20004KT 5SM BR OVC010 26/25 A2985 RMK AO2 T02550254
KBEA - Beeville Muni, Texas, USA
Distance from station: SW 51mi, 83km
Updated: 06/19/2019 6:35am
Overcast
Overcast
 Wind from S
Wind: S 9 mph , 15 km/h
Temperature: 81°F , 27°C
Heat Index: 87°F , 31°C
Dew Point: 75°F , 24°C
Humidity: 84%
Barometer: 29.86 inHg , 1011.2 hPa
Clouds: Overcast
Visibility: 10 miles , 16 km
Cloud details: Overcast 700 ft
2019/06/19 11:35 KBEA 191135Z AUTO 18008KT 10SM OVC007 27/24 A2986 RMK AO2 T02740244
 
KRKP - Rockport, Texas, USA
Distance from station: S 53mi, 86km
Updated: 06/19/2019 5:53am
Clear
Clear
 Wind from varies
Wind: varies 6 mph , 9 km/h
Temperature: 81°F , 27°C
Heat Index: 88°F , 31°C
Dew Point: 77°F , 25°C
Humidity: 89%
Barometer: 29.84 inHg , 1010.5 hPa
Clouds: Clear
Visibility: 8 miles , 13 km
2019/06/19 10:53 KRKP 191053Z AUTO VRB05KT 8SM CLR 27/25 A2984 RMK AO2 SLP106 T02720250
KPSX - Palacios, Texas, USA
Distance from station: E 55mi, 88km
Updated: 06/19/2019 6:31am
Partly cloudy
Partly cloudy
 Wind from SSW
Wind: SSW 12 mph , 19 km/h
Temperature: 84°F , 29°C
Heat Index: 92°F , 33°C
Dew Point: 75°F , 24°C
Humidity: 74%
Barometer: 29.85 inHg , 1010.8 hPa
Clouds: Partly cloudy
Visibility: 9 miles , 14 km
Cloud details: Partly cloudy 1700 ft
Partly cloudy 2200 ft
2019/06/19 11:31 KPSX 191131Z AUTO 21010KT 9SM SCT017 SCT022 29/24 A2985 RMK AO2 T02940244
 
KTFP - Ingleside/Tp Mcc, Texas, USA
Distance from station: S 65mi, 104km
Updated: 06/19/2019 6:35am
Clear
Clear
 Wind from S
Wind: S 7 mph , 11 km/h
Temperature: 81°F , 27°C
Heat Index: 88°F , 31°C
Dew Point: 77°F , 25°C
Humidity: 89%
Barometer: 29.85 inHg , 1010.8 hPa
Clouds: Clear
Visibility: 10 miles , 16 km
2019/06/19 11:35 KTFP 191135Z AUTO 19006KT 10SM CLR 27/25 A2985 RMK AO2 T02740250 PNO
K66R - Columbus, Texas, USA
Distance from station: NE 66mi, 106km
Updated: 06/19/2019 6:35am
Mist, Overcast
Mist, Overcast
 Wind from SSW
Wind: SSW 5 mph , 7 km/h
Temperature: 79°F , 26°C
Dew Point: 75°F , 24°C
Humidity: 89%
Barometer: 29.87 inHg , 1011.5 hPa
Summary: Mist
Clouds: Overcast
Visibility: 4 miles , 6 km
Cloud details: Overcast 400 ft
2019/06/19 11:35 K66R 191135Z AUTO 21004KT 4SM BR OVC004 26/24 A2987 RMK AO2 T02550240
 
KARM - Wharton, Texas, USA
Distance from station: ENE 66mi, 106km
Updated: 06/19/2019 6:35am
Mist, Clear
Mist, Clear
 Wind from S
Wind: S 3 mph , 6 km/h
Temperature: 77°F , 25°C
Dew Point: 75°F , 24°C
Humidity: 94%
Barometer: 29.86 inHg , 1011.2 hPa
Summary: Mist
Clouds: Clear
Visibility: 2 1/2 miles , 4 km
2019/06/19 11:35 KARM 191135Z AUTO 18003KT 2 1/2SM BR CLR 25/24 A2986 RMK AO2 T02480242
KRAS - Port Aransas, Texas, USA
Distance from station: S 71mi, 115km
Updated: 06/19/2019 6:35am
Partly cloudy
Partly cloudy
 Wind from S
Wind: S 10 mph , 17 km/h
Temperature: 82°F , 28°C
Heat Index: 90°F , 32°C
Dew Point: 77°F , 25°C
Humidity: 84%
Barometer: 29.87 inHg , 1011.5 hPa
Clouds: Partly cloudy
Visibility: 10 miles , 16 km
Cloud details: Partly cloudy 1400 ft
2019/06/19 11:35 KRAS 191135Z AUTO 17009KT 10SM SCT014 28/25 A2987 RMK AO2 T02770255
 
KELA - Eagle Lake, Texas, USA
Distance from station: NE 72mi, 115km
Updated: 06/19/2019 6:35am
Mist, Overcast
Mist, Overcast
 Wind from SSW
Wind: SSW 5 mph , 7 km/h
Temperature: 81°F , 27°C
Heat Index: 89°F , 32°C
Dew Point: 79°F , 26°C
Humidity: 94%
Barometer: 29.86 inHg , 1011.2 hPa
Summary: Mist
Clouds: Overcast
Visibility: 2 1/2 miles , 4 km
Cloud details: Overcast 400 ft
2019/06/19 11:35 KELA 191135Z AUTO 21004KT 2 1/2SM BR OVC004 27/26 A2986 RMK AO2 T02650261
K3T5 - La Grange, Texas, USA
Distance from station: N 73mi, 118km
Updated: 06/19/2019 6:35am
Overcast
Overcast
 Wind from SSW
Wind: SSW 3 mph , 6 km/h
Temperature: 81°F , 27°C
Heat Index: 91°F , 33°C
Dew Point: 81°F , 27°C
Humidity: 100%
Barometer: 29.84 inHg , 1010.5 hPa
Clouds: Overcast
Visibility: 7 miles , 11 km
Cloud details: Overcast 1100 ft
2019/06/19 11:35 K3T5 191135Z AUTO 21003KT 7SM OVC011 27/27 A2984 RMK AO2 T02680268
 
KBYY - Bay City, Texas, USA
Distance from station: E 77mi, 124km
Updated: 06/19/2019 6:35am
Mist, Partly cloudy
Mist, Partly cloudy
 Wind from S
Wind: S 3 mph , 6 km/h
Temperature: 79°F , 26°C
Dew Point: 79°F , 26°C
Humidity: 100%
Barometer: 29.85 inHg , 1010.8 hPa
Summary: Mist
Clouds: Partly cloudy
Visibility: 2 1/2 miles , 4 km
Cloud details: Partly cloudy 1600 ft
2019/06/19 11:35 KBYY 191135Z AUTO 19003KT 2 1/2SM BR SCT016 26/26 A2985 RMK AO2 T02600260
KCRP - Corpus Christi, Texas, USA
Distance from station: SSW 78mi, 126km
Updated: 06/19/2019 5:51am
Partly cloudy
Partly cloudy
 Wind from S
Wind: S 5 mph , 7 km/h
Temperature: 79°F , 26°C
Dew Point: 77°F , 25°C
Humidity: 94%
Barometer: 29.84 inHg , 1010.5 hPa
Clouds: Partly cloudy
Visibility: 10 miles , 16 km
Cloud details: Few Clouds 1300 ft
Partly cloudy 25000 ft
2019/06/19 10:51 KCRP 191051Z 17004KT 10SM FEW013 SCT250 26/25 A2984 RMK AO2 SLP104 T02610250
 
KNGP - C. Christi Nas, Texas, USA
Distance from station: S 81mi, 130km
Updated: 06/19/2019 5:56am
Partly cloudy
Partly cloudy
 Wind from S
Wind: S 9 mph , 15 km/h
Temperature: 81°F , 27°C
Heat Index: 89°F , 32°C
Dew Point: 79°F , 26°C
Humidity: 94%
Barometer: 29.84 inHg , 1010.5 hPa
Clouds: Partly cloudy
Visibility: 10 miles , 16 km
Cloud details: Few Clouds 1200 ft
Few Clouds 2000 ft
Partly cloudy 25000 ft
2019/06/19 10:56 KNGP 191056Z 18008KT 10SM FEW012 FEW020 SCT250 27/26 A2984 RMK AO2 SLP103 T02720256 $
KRBO - Robstown/Nueces, Texas, USA
Distance from station: SSW 81mi, 130km
Updated: 06/19/2019 6:35am
Clear
Clear
 Wind from S
Wind: S 3 mph , 6 km/h
Temperature: 77°F , 25°C
Dew Point: 77°F , 25°C
Humidity: 100%
Barometer: 29.85 inHg , 1010.8 hPa
Clouds: Clear
Visibility: 10 miles , 16 km
2019/06/19 11:35 KRBO 191135Z AUTO 17003KT 10SM CLR 25/25 A2985 RMK AO2 T02510245
 
KBAZ - New Braunfels, Texas, USA
Distance from station: NW 81mi, 131km
Updated: 06/19/2019 5:51am
Mist, Overcast
Mist, Overcast
 Wind from calm
Wind: Calm
Temperature: 77°F , 25°C
Dew Point: 75°F , 24°C
Humidity: 94%
Barometer: 29.85 inHg , 1010.8 hPa
Summary: Mist
Clouds: Overcast
Visibility: 5 miles , 8 km
Cloud details: Overcast 1200 ft
2019/06/19 10:51 KBAZ 191051Z AUTO 00000KT 5SM BR OVC012 25/24 A2985 RMK AO2 SLP098 T02500239
KRND - Randolph Afb, Texas, USA
Distance from station: NW 82mi, 132km
Updated: 06/19/2019 5:56am
Mostly cloudy
Mostly cloudy
 Wind from S
Wind: S 8 mph , 13 km/h
Temperature: 77°F , 25°C
Dew Point: 75°F , 24°C
Humidity: 94%
Barometer: 29.86 inHg , 1011.2 hPa
Clouds: Mostly cloudy
Visibility: 10 miles , 16 km
Cloud details: Partly cloudy 900 ft
Mostly cloudy 1400 ft
2019/06/19 10:56 KRND 191056Z AUTO 18007KT 10SM SCT009 BKN014 25/24 A2986 RMK AO2 BKN V SCT CIG 009 RWY15R SLP102 T02530241 CHINO RWY33R $
 
KHYI - San Marcos, Texas, USA
Distance from station: NNW 84mi, 135km
Updated: 06/19/2019 5:56am
Clear
Clear
 Wind from S
Wind: S 6 mph , 9 km/h
Temperature: 75°F , 24°C
Dew Point: 75°F , 24°C
Humidity: 100%
Barometer: 29.87 inHg , 1011.5 hPa
Clouds: Clear
Visibility: 8 miles , 13 km
2019/06/19 10:56 KHYI 191056Z AUTO 18005KT 8SM CLR 24/24 A2987 RMK AO2 SLP103 T02440239
KPEZ - Pleasanton Muni, Texas, USA
Distance from station: W 84mi, 135km
Updated: 06/19/2019 6:35am
Clear
Clear
 Wind from SSE
Wind: SSE 3 mph , 6 km/h
Temperature: 75°F , 24°C
Dew Point: 73°F , 23°C
Humidity: 94%
Barometer: 29.86 inHg , 1011.2 hPa
Clouds: Clear
Visibility: 7 miles , 11 km
2019/06/19 11:35 KPEZ 191135Z AUTO 16003KT 7SM CLR 24/23 A2986 RMK AO2 T02400231